createdAt,value
2019-03-22T00:04:35.581Z,58.19
2019-03-22T00:09:48.217Z,57.17
2019-03-22T00:15:01.534Z,56.49
2019-03-22T00:20:11.854Z,56.11
2019-03-22T00:25:21.432Z,55.92
2019-03-22T00:30:33.670Z,57.45
2019-03-22T00:35:50.030Z,58.13
2019-03-22T00:41:00.090Z,58.11
2019-03-22T00:46:16.304Z,60.10
2019-03-22T00:51:26.415Z,60.04
2019-03-22T00:56:40.191Z,59.72
2019-03-22T01:01:52.000Z,60.62
2019-03-22T01:07:06.438Z,59.48
2019-03-22T01:12:20.762Z,59.76
2019-03-22T01:17:32.046Z,59.14
2019-03-22T01:22:48.037Z,57.63
2019-03-22T01:27:58.382Z,57.01
2019-03-22T01:33:12.920Z,56.69
2019-03-22T01:38:23.629Z,57.18
2019-03-22T01:43:35.148Z,56.38
2019-03-22T01:48:47.578Z,57.19
2019-03-22T01:54:04.798Z,58.98
2019-03-22T01:59:16.187Z,58.75
2019-03-22T02:04:25.492Z,58.03
2019-03-22T02:09:39.734Z,57.04
2019-03-22T02:14:47.916Z,57.21
2019-03-22T02:19:59.318Z,57.60
2019-03-22T02:25:16.142Z,58.40
2019-03-22T02:30:33.834Z,61.23
2019-03-22T02:35:46.577Z,60.68
2019-03-22T02:40:58.421Z,61.82
2019-03-22T02:46:12.479Z,61.59
2019-03-22T02:51:27.025Z,59.11
2019-03-22T02:56:39.058Z,59.11
2019-03-22T03:01:57.834Z,59.13
2019-03-22T03:07:04.343Z,58.94
2019-03-22T03:12:14.770Z,59.54
2019-03-22T03:17:24.732Z,59.01
2019-03-22T03:22:39.215Z,60.67
2019-03-22T03:27:50.739Z,58.79
2019-03-22T03:33:03.065Z,58.78
2019-03-22T03:38:13.543Z,59.71
2019-03-22T03:43:22.187Z,59.49
2019-03-22T03:48:36.078Z,58.91
2019-03-22T03:53:47.282Z,60.22
2019-03-22T03:58:58.546Z,59.88
2019-03-22T04:04:09.700Z,59.64
2019-03-22T04:09:39.970Z,60.30
2019-03-22T04:14:54.280Z,61.43
2019-03-22T04:20:06.350Z,62.13
2019-03-22T04:25:16.734Z,61.92
2019-03-22T04:30:32.503Z,60.91
2019-03-22T04:35:48.534Z,61.50
2019-03-22T04:40:59.675Z,61.56
2019-03-22T04:46:08.661Z,60.22
2019-03-22T04:51:17.669Z,59.74
2019-03-22T04:56:27.451Z,59.42
2019-03-22T05:01:38.908Z,58.86
2019-03-22T05:06:50.399Z,59.73
2019-03-22T05:12:04.089Z,58.60
2019-03-22T05:17:15.995Z,58.48
2019-03-22T05:22:24.995Z,57.55
2019-03-22T05:27:37.544Z,56.61
2019-03-22T05:32:48.738Z,56.53
2019-03-22T05:38:01.456Z,56.96
2019-03-22T05:43:10.682Z,56.31
2019-03-22T05:48:42.407Z,57.14
2019-03-22T05:53:55.801Z,56.53
2019-03-22T05:59:05.738Z,56.96
2019-03-22T06:04:17.216Z,57.37
2019-03-22T06:09:30.062Z,56.45
2019-03-22T06:14:38.276Z,56.04
2019-03-22T06:19:46.798Z,56.10
2019-03-22T06:24:58.634Z,55.81
2019-03-22T06:30:12.458Z,56.30
2019-03-22T06:35:25.573Z,55.81
2019-03-22T06:40:37.517Z,55.38
2019-03-22T06:45:46.220Z,55.17
2019-03-22T06:50:54.186Z,54.79
2019-03-22T06:56:02.846Z,54.37
2019-03-22T07:01:11.838Z,54.79
2019-03-22T07:06:21.778Z,54.53
2019-03-22T07:11:32.256Z,54.38
2019-03-22T07:16:42.324Z,54.33
2019-03-22T07:21:51.868Z,54.55
2019-03-22T07:27:01.236Z,54.18
2019-03-22T07:32:10.952Z,54.20
2019-03-22T07:37:26.165Z,54.16
2019-03-22T07:42:34.876Z,54.13
2019-03-22T07:47:45.375Z,54.31
2019-03-22T07:52:55.680Z,53.89
2019-03-22T07:58:10.628Z,53.68
2019-03-22T08:03:26.178Z,53.72
2019-03-22T08:08:35.844Z,53.34
2019-03-22T08:13:44.135Z,52.79
2019-03-22T08:18:51.980Z,52.65
2019-03-22T08:24:20.021Z,52.74
2019-03-22T08:29:26.072Z,52.93
2019-03-22T08:34:32.124Z,52.85
2019-03-22T08:39:38.576Z,53.09
2019-03-22T08:44:44.606Z,53.43
2019-03-22T08:49:52.042Z,53.03
2019-03-22T08:54:58.875Z,53.44
2019-03-22T09:00:07.749Z,53.23
2019-03-22T09:05:14.350Z,53.65
2019-03-22T09:10:20.213Z,52.79
2019-03-22T09:15:27.037Z,52.72
2019-03-22T09:20:33.092Z,52.06
2019-03-22T09:25:38.979Z,51.13
2019-03-22T09:30:46.332Z,51.32
2019-03-22T09:35:54.030Z,50.86
2019-03-22T09:40:59.738Z,51.72
2019-03-22T09:46:06.091Z,51.99
2019-03-22T09:51:11.868Z,51.41
2019-03-22T09:56:18.017Z,50.80
2019-03-22T10:01:24.603Z,51.58
2019-03-22T10:06:30.993Z,50.64
2019-03-22T10:11:37.619Z,50.16
2019-03-22T10:16:43.352Z,50.65
2019-03-22T10:21:49.662Z,50.51
2019-03-22T10:26:56.187Z,52.12
2019-03-22T10:32:02.367Z,51.92
2019-03-22T10:37:08.276Z,51.06
2019-03-22T10:42:14.362Z,50.42
2019-03-22T10:47:20.143Z,50.69
2019-03-22T10:52:26.369Z,50.97
2019-03-22T10:57:32.112Z,51.41
2019-03-22T11:02:38.573Z,50.68
2019-03-22T11:07:44.506Z,50.22
2019-03-22T11:12:52.280Z,49.82
2019-03-22T11:17:59.222Z,49.51
2019-03-22T11:23:05.251Z,49.60
2019-03-22T11:28:12.095Z,49.62
2019-03-22T11:33:18.216Z,48.76
2019-03-22T11:38:25.058Z,49.52
2019-03-22T11:43:30.640Z,50.11
2019-03-22T11:48:37.921Z,49.07
2019-03-22T11:53:43.617Z,48.98
2019-03-22T11:58:51.053Z,48.75
2019-03-22T12:03:57.229Z,48.49
2019-03-22T12:09:03.555Z,48.16
2019-03-22T12:14:10.921Z,48.65
2019-03-22T12:19:16.898Z,47.79
2019-03-22T12:24:23.574Z,48.28
2019-03-22T12:29:29.803Z,48.26
2019-03-22T12:34:35.745Z,47.14
2019-03-22T12:39:41.971Z,47.55
2019-03-22T12:44:48.429Z,48.87
2019-03-22T12:49:54.031Z,47.82
2019-03-22T12:54:59.742Z,47.09
2019-03-22T13:00:11.105Z,47.07
2019-03-22T13:05:17.803Z,48.03
2019-03-22T13:10:27.785Z,47.90
2019-03-22T13:15:33.403Z,48.78
2019-03-22T13:20:39.257Z,47.29
2019-03-22T13:25:45.184Z,46.54
2019-03-22T13:30:51.698Z,46.57
2019-03-22T13:35:57.564Z,45.84
2019-03-22T13:41:04.261Z,45.30
2019-03-22T13:46:12.211Z,45.73
2019-03-22T13:51:17.778Z,44.97
2019-03-22T13:56:24.125Z,44.87
2019-03-22T14:01:29.997Z,44.35
2019-03-22T14:06:35.784Z,44.46
2019-03-22T14:11:42.022Z,44.28
2019-03-22T14:16:47.827Z,43.12
2019-03-22T14:21:54.162Z,43.76
2019-03-22T14:27:00.565Z,42.49
2019-03-22T14:32:07.935Z,42.64
2019-03-22T14:37:15.449Z,41.98
2019-03-22T14:42:21.031Z,39.37
2019-03-22T14:47:27.566Z,40.31
2019-03-22T14:52:34.350Z,39.72
2019-03-22T14:57:48.111Z,39.42
2019-03-22T15:02:47.359Z,37.52
2019-03-22T15:07:53.801Z,36.66
2019-03-22T15:13:00.921Z,35.81
2019-03-22T15:18:08.365Z,35.47
2019-03-22T15:23:28.962Z,36.80
2019-03-22T15:28:47.316Z,34.39
2019-03-22T15:33:58.595Z,34.63
2019-03-22T15:39:09.875Z,32.94
2019-03-22T15:44:16.624Z,33.98
2019-03-22T15:49:22.858Z,33.53
2019-03-22T15:54:29.381Z,33.87
2019-03-22T15:59:35.333Z,34.30
2019-03-22T16:04:42.238Z,33.28
2019-03-22T16:09:48.178Z,33.36
2019-03-22T16:14:54.481Z,33.12
2019-03-22T16:20:00.252Z,32.43
2019-03-22T16:25:11.051Z,31.80
2019-03-22T16:30:18.680Z,32.11
2019-03-22T16:35:24.971Z,32.05
2019-03-22T16:40:31.152Z,31.96
2019-03-22T16:45:39.636Z,33.80
2019-03-22T16:50:46.102Z,34.54
2019-03-22T16:55:52.654Z,34.98
2019-03-22T17:01:01.036Z,36.13
2019-03-22T17:06:07.557Z,37.06
